createdAt,value
2018-09-15T00:00:58.764Z,7.85
2018-09-15T00:02:02.889Z,7.05
2018-09-15T00:03:07.655Z,8.03
2018-09-15T00:04:11.831Z,7.10
2018-09-15T00:05:16.242Z,6.65
2018-09-15T00:06:20.588Z,8.13
2018-09-15T00:07:25.000Z,7.78
2018-09-15T00:08:29.249Z,8.00
2018-09-15T00:09:33.579Z,7.10
2018-09-15T00:10:37.927Z,7.65
2018-09-15T00:11:42.103Z,8.20
2018-09-15T00:12:46.616Z,8.38
2018-09-15T00:13:50.978Z,7.30
2018-09-15T00:14:55.343Z,7.20
2018-09-15T00:15:59.721Z,7.67
2018-09-15T00:17:03.799Z,7.05
2018-09-15T00:18:10.303Z,7.83
2018-09-15T00:19:14.668Z,7.85
2018-09-15T00:20:18.859Z,7.62
2018-09-15T00:21:23.035Z,7.28
2018-09-15T00:22:27.258Z,7.50
2018-09-15T00:23:31.375Z,6.22
2018-09-15T00:24:35.606Z,7.33
2018-09-15T00:25:40.740Z,7.22
2018-09-15T00:26:44.999Z,7.50
2018-09-15T00:27:49.555Z,7.40
2018-09-15T00:28:53.701Z,7.40
2018-09-15T00:29:57.925Z,6.58
2018-09-15T00:31:02.151Z,7.55
2018-09-15T00:32:06.356Z,8.33
2018-09-15T00:33:10.763Z,7.25
2018-09-15T00:34:15.065Z,7.85
2018-09-15T00:35:19.184Z,7.55
2018-09-15T00:36:23.912Z,7.37
2018-09-15T00:37:28.124Z,8.13
2018-09-15T00:38:32.393Z,7.47
2018-09-15T00:39:36.481Z,8.23
2018-09-15T00:40:40.632Z,6.80
2018-09-15T00:41:45.080Z,7.65
2018-09-15T00:42:49.286Z,7.47
2018-09-15T00:43:54.330Z,7.62
2018-09-15T00:44:58.537Z,7.05
2018-09-15T00:46:02.749Z,7.33
2018-09-15T00:47:06.926Z,7.00
2018-09-15T00:48:11.052Z,7.12
2018-09-15T00:49:15.266Z,6.90
2018-09-15T00:50:19.449Z,7.08
2018-09-15T00:51:23.675Z,7.05
2018-09-15T00:52:28.127Z,7.17
2018-09-15T00:53:32.962Z,6.62
2018-09-15T00:54:37.405Z,7.15
2018-09-15T00:55:41.839Z,6.65
2018-09-15T00:56:46.184Z,6.72
2018-09-15T00:57:50.596Z,6.92
2018-09-15T00:58:55.098Z,6.78
2018-09-15T00:59:59.441Z,6.70
2018-09-15T01:01:03.741Z,7.28
2018-09-15T01:02:08.059Z,7.15
2018-09-15T01:03:12.189Z,6.78
2018-09-15T01:04:16.308Z,6.72
2018-09-15T01:05:20.540Z,6.55
2018-09-15T01:06:24.789Z,6.95
2018-09-15T01:07:29.491Z,6.85
2018-09-15T01:08:33.619Z,6.60
2018-09-15T01:09:37.696Z,7.28
2018-09-15T01:10:41.910Z,7.00
2018-09-15T01:11:46.288Z,7.70
2018-09-15T01:12:50.651Z,6.70
2018-09-15T01:13:55.198Z,6.85
2018-09-15T01:14:59.403Z,6.95
2018-09-15T01:16:03.616Z,6.30
2018-09-15T01:17:08.239Z,6.65
2018-09-15T01:18:12.469Z,7.20
2018-09-15T01:19:16.745Z,8.13
2018-09-15T01:20:21.172Z,7.60
2018-09-15T01:21:25.640Z,7.17
2018-09-15T01:22:29.938Z,7.25
2018-09-15T01:23:34.199Z,7.47
2018-09-15T01:24:38.339Z,6.45
2018-09-15T01:25:42.691Z,7.85
2018-09-15T01:26:46.889Z,6.85
2018-09-15T01:27:51.302Z,7.15
2018-09-15T01:28:56.034Z,6.72
2018-09-15T01:30:00.465Z,7.37
2018-09-15T01:31:04.730Z,7.08
2018-09-15T01:32:09.058Z,7.87
2018-09-15T01:33:13.388Z,7.45
2018-09-15T01:34:17.754Z,7.80
2018-09-15T01:35:21.983Z,6.58
2018-09-15T01:36:26.200Z,7.55
2018-09-15T01:37:30.510Z,6.60
2018-09-15T01:38:34.856Z,7.20
2018-09-15T01:39:39.094Z,6.50
2018-09-15T01:40:43.223Z,7.05
2018-09-15T01:41:47.416Z,7.60
2018-09-15T01:42:51.634Z,6.90
2018-09-15T01:43:55.838Z,6.87
2018-09-15T01:45:00.006Z,6.60
2018-09-15T01:46:04.145Z,6.80
2018-09-15T01:47:08.731Z,7.33
2018-09-15T01:48:13.349Z,6.17
2018-09-15T01:49:17.992Z,6.97
2018-09-15T01:50:22.222Z,6.95
2018-09-15T01:51:26.519Z,8.08
2018-09-15T01:52:30.819Z,6.62
2018-09-15T01:53:35.393Z,7.10
2018-09-15T01:54:39.569Z,6.95
2018-09-15T01:55:44.302Z,6.35
2018-09-15T01:56:48.366Z,6.47
2018-09-15T01:57:52.850Z,7.25
2018-09-15T01:58:57.159Z,6.62
2018-09-15T02:00:01.685Z,7.95
2018-09-15T02:01:05.965Z,7.95
2018-09-15T02:02:10.518Z,7.05
2018-09-15T02:03:14.970Z,6.60
2018-09-15T02:04:19.194Z,7.00
2018-09-15T02:05:23.365Z,6.85
2018-09-15T02:06:27.797Z,6.67
2018-09-15T02:07:31.999Z,7.00
2018-09-15T02:08:36.155Z,7.15
2018-09-15T02:09:40.745Z,6.47
2018-09-15T02:10:45.048Z,7.25
2018-09-15T02:11:49.445Z,6.60
2018-09-15T02:12:53.807Z,6.40
2018-09-15T02:13:58.090Z,7.30
2018-09-15T02:15:02.443Z,7.00
2018-09-15T02:16:06.763Z,7.10
2018-09-15T02:17:11.128Z,7.35
2018-09-15T02:18:15.326Z,6.87
2018-09-15T02:19:19.737Z,6.83
2018-09-15T02:20:24.037Z,7.12
2018-09-15T02:21:28.402Z,7.20
2018-09-15T02:22:33.029Z,6.25
2018-09-15T02:23:37.456Z,6.87
2018-09-15T02:24:41.685Z,7.05
2018-09-15T02:25:46.042Z,7.17
2018-09-15T02:26:50.225Z,7.20
2018-09-15T02:27:54.317Z,6.97
2018-09-15T02:28:58.728Z,7.33
2018-09-15T02:30:03.030Z,7.47
2018-09-15T02:31:07.603Z,7.65
2018-09-15T02:32:12.014Z,6.60
2018-09-15T02:33:16.316Z,7.08
2018-09-15T02:34:20.620Z,7.60
2018-09-15T02:35:24.989Z,6.92
2018-09-15T02:36:29.257Z,6.90
2018-09-15T02:37:33.611Z,7.67
2018-09-15T02:38:38.142Z,7.20
2018-09-15T02:39:42.464Z,7.62
2018-09-15T02:40:46.639Z,7.00
2018-09-15T02:41:50.723Z,7.10
2018-09-15T02:42:54.958Z,6.78
2018-09-15T02:43:59.602Z,7.35
2018-09-15T02:45:04.064Z,6.85
2018-09-15T02:46:08.182Z,6.90
2018-09-15T02:47:12.444Z,7.42
2018-09-15T02:48:16.686Z,7.55
2018-09-15T02:49:21.122Z,7.15
2018-09-15T02:50:25.316Z,6.90
2018-09-15T02:51:29.408Z,7.37
2018-09-15T02:52:33.823Z,8.25
2018-09-15T02:53:38.619Z,7.62
2018-09-15T02:54:42.968Z,7.37
2018-09-15T02:55:47.290Z,7.15
2018-09-15T02:56:51.550Z,6.92
2018-09-15T02:57:55.875Z,8.15
2018-09-15T02:59:00.315Z,6.78
2018-09-15T03:00:04.463Z,7.37
2018-09-15T03:01:08.962Z,6.70
2018-09-15T03:02:13.158Z,7.05
2018-09-15T03:03:17.297Z,6.90
2018-09-15T03:04:21.748Z,7.55
2018-09-15T03:05:26.038Z,8.20
2018-09-15T03:06:30.608Z,7.22
2018-09-15T03:07:35.094Z,7.75
2018-09-15T03:08:39.603Z,7.80
2018-09-15T03:09:44.328Z,8.13
2018-09-15T03:10:48.737Z,7.37
2018-09-15T03:11:52.879Z,8.45
2018-09-15T03:12:57.039Z,9.00
2018-09-15T03:14:01.283Z,8.23
2018-09-15T03:15:05.663Z,8.80
2018-09-15T03:16:09.813Z,8.35
2018-09-15T03:17:14.059Z,8.98
2018-09-15T03:18:18.306Z,9.28
2018-09-15T03:19:23.043Z,8.55
2018-09-15T03:20:27.374Z,8.35
2018-09-15T03:21:31.682Z,9.18
2018-09-15T03:22:36.355Z,8.13
2018-09-15T03:23:40.562Z,8.80
2018-09-15T03:24:44.652Z,9.15
2018-09-15T03:25:48.934Z,9.23
2018-09-15T03:26:53.291Z,8.55
2018-09-15T03:27:57.577Z,10.13
2018-09-15T03:29:01.941Z,10.05
2018-09-15T03:30:06.110Z,9.58
2018-09-15T03:31:10.516Z,9.38
2018-09-15T03:32:14.784Z,9.28
2018-09-15T03:33:18.906Z,9.15
2018-09-15T03:34:23.287Z,8.80
2018-09-15T03:35:27.394Z,9.28
2018-09-15T03:36:31.855Z,9.00
2018-09-15T03:37:36.029Z,9.03
2018-09-15T03:38:40.469Z,9.50
2018-09-15T03:39:44.713Z,9.68
2018-09-15T03:40:48.975Z,9.90
2018-09-15T03:41:53.287Z,9.45
2018-09-15T03:42:57.397Z,10.63
2018-09-15T03:44:01.445Z,9.73
2018-09-15T03:45:05.552Z,11.75
2018-09-15T03:46:09.963Z,11.22
2018-09-15T03:47:14.194Z,10.72
2018-09-15T03:48:18.331Z,11.15
2018-09-15T03:49:22.513Z,10.50
2018-09-15T03:50:26.638Z,11.55
2018-09-15T03:51:30.838Z,12.65
2018-09-15T03:52:35.428Z,13.05
2018-09-15T03:53:39.573Z,11.12
2018-09-15T03:54:43.840Z,11.45
2018-09-15T03:55:48.101Z,13.30
2018-09-15T03:56:52.560Z,11.03
2018-09-15T03:57:56.919Z,12.13
2018-09-15T03:59:01.115Z,11.95
2018-09-15T04:00:05.568Z,10.55
2018-09-15T04:01:10.013Z,11.70
2018-09-15T04:02:14.274Z,12.20
2018-09-15T04:03:18.508Z,10.95
2018-09-15T04:04:22.972Z,11.18
2018-09-15T04:05:27.150Z,12.47
2018-09-15T04:06:31.325Z,12.20
2018-09-15T04:07:35.717Z,11.50
2018-09-15T04:08:39.813Z,12.37
2018-09-15T04:09:44.338Z,11.25
2018-09-15T04:10:48.555Z,12.25
2018-09-15T04:11:52.899Z,12.28
2018-09-15T04:12:57.295Z,12.68
2018-09-15T04:14:02.216Z,12.95
2018-09-15T04:15:06.484Z,13.00
2018-09-15T04:16:10.629Z,12.98
2018-09-15T04:17:15.017Z,13.45
2018-09-15T04:18:19.566Z,12.00
2018-09-15T04:19:23.802Z,12.75
2018-09-15T04:20:27.946Z,12.90
2018-09-15T04:21:32.371Z,13.85
2018-09-15T04:22:36.637Z,13.72
2018-09-15T04:23:40.744Z,13.53
2018-09-15T04:24:44.953Z,13.62
2018-09-15T04:25:49.537Z,13.88
2018-09-15T04:26:53.990Z,14.28
2018-09-15T04:27:58.369Z,13.20
2018-09-15T04:29:02.813Z,13.15
2018-09-15T04:30:07.250Z,14.35
2018-09-15T04:31:11.528Z,12.93
2018-09-15T04:32:15.769Z,14.80
2018-09-15T04:33:20.244Z,15.48
2018-09-15T04:34:24.629Z,14.10
2018-09-15T04:35:28.773Z,13.88
2018-09-15T04:36:32.920Z,15.38
2018-09-15T04:37:37.206Z,14.55
2018-09-15T04:38:41.333Z,16.20
2018-09-15T04:39:45.685Z,17.05
2018-09-15T04:40:49.994Z,16.55
2018-09-15T04:41:54.125Z,15.88
2018-09-15T04:42:58.258Z,15.32
2018-09-15T04:44:02.376Z,16.65
2018-09-15T04:45:06.791Z,16.45
2018-09-15T04:46:11.041Z,17.82
2018-09-15T04:47:15.294Z,17.32
2018-09-15T04:48:19.713Z,17.98
2018-09-15T04:49:23.985Z,17.48
2018-09-15T04:50:28.106Z,16.20
2018-09-15T04:51:32.315Z,17.10
2018-09-15T04:52:36.874Z,19.57
2018-09-15T04:53:40.956Z,19.27
2018-09-15T04:54:45.429Z,19.02
2018-09-15T04:55:49.696Z,20.27
2018-09-15T04:56:53.983Z,21.42
2018-09-15T04:57:58.342Z,21.15
2018-09-15T04:59:02.548Z,20.77
2018-09-15T05:00:06.808Z,21.10
2018-09-15T05:01:10.952Z,20.48
2018-09-15T05:02:15.274Z,20.70
2018-09-15T05:03:19.462Z,22.62
2018-09-15T05:04:23.600Z,22.25
2018-09-15T05:05:27.759Z,25.60
2018-09-15T05:06:31.944Z,23.35
2018-09-15T05:07:36.657Z,24.30
2018-09-15T05:08:40.782Z,23.77
2018-09-15T05:09:45.014Z,25.35
2018-09-15T05:10:49.349Z,26.30
2018-09-15T05:11:53.737Z,26.12
2018-09-15T05:12:58.117Z,25.62
2018-09-15T05:14:03.443Z,27.52
2018-09-15T05:15:07.679Z,25.25
2018-09-15T05:16:11.814Z,28.02
2018-09-15T05:17:16.106Z,26.73
2018-09-15T05:18:20.496Z,27.80
2018-09-15T05:19:25.073Z,26.10
2018-09-15T05:20:29.667Z,27.60
2018-09-15T05:21:34.236Z,28.60
2018-09-15T05:22:38.562Z,26.35
2018-09-15T05:23:42.846Z,28.30
2018-09-15T05:24:47.164Z,26.12
2018-09-15T05:25:51.588Z,25.80
2018-09-15T05:26:55.775Z,27.93
2018-09-15T05:27:59.954Z,28.65
2018-09-15T05:29:04.186Z,26.50
2018-09-15T05:30:08.816Z,27.70
2018-09-15T05:31:13.293Z,28.47
2018-09-15T05:32:17.599Z,28.67
2018-09-15T05:33:21.820Z,29.90
2018-09-15T05:34:26.053Z,28.70
2018-09-15T05:35:30.304Z,29.50
2018-09-15T05:36:34.896Z,28.73
2018-09-15T05:37:39.089Z,25.70
2018-09-15T05:38:43.386Z,28.92
2018-09-15T05:39:47.765Z,28.07
2018-09-15T05:40:51.894Z,27.90
2018-09-15T05:41:56.078Z,30.02
2018-09-15T05:43:00.333Z,28.12
2018-09-15T05:44:04.657Z,27.37
2018-09-15T05:45:08.999Z,28.23
2018-09-15T05:46:13.270Z,28.80
2018-09-15T05:47:17.481Z,28.30
2018-09-15T05:48:21.811Z,28.23
2018-09-15T05:49:25.908Z,29.02
2018-09-15T05:50:30.092Z,28.85
2018-09-15T05:51:34.506Z,29.57
2018-09-15T05:52:39.105Z,29.00
2018-09-15T05:53:43.756Z,28.55
2018-09-15T05:54:47.940Z,30.10
2018-09-15T05:55:52.194Z,28.45
2018-09-15T05:56:56.436Z,28.85
2018-09-15T05:58:00.617Z,28.70
2018-09-15T05:59:05.042Z,29.45
2018-09-15T06:00:09.255Z,31.87
2018-09-15T06:01:13.636Z,28.55
2018-09-15T06:02:18.214Z,30.35
2018-09-15T06:03:22.396Z,31.30
2018-09-15T06:04:26.719Z,30.17
2018-09-15T06:05:31.153Z,29.37
2018-09-15T06:06:35.302Z,30.45
2018-09-15T06:07:39.669Z,29.48
2018-09-15T06:08:44.018Z,30.45
2018-09-15T06:09:48.353Z,33.70
2018-09-15T06:10:52.722Z,30.60
2018-09-15T06:11:56.950Z,32.33
2018-09-15T06:13:01.234Z,30.57
2018-09-15T06:14:05.704Z,31.65
2018-09-15T06:15:10.028Z,29.30
2018-09-15T06:16:14.465Z,31.15
2018-09-15T06:17:18.665Z,31.33
2018-09-15T06:18:22.745Z,31.45
2018-09-15T06:19:28.000Z,31.80
2018-09-15T06:20:32.336Z,30.52
2018-09-15T06:21:36.592Z,32.13
2018-09-15T06:22:40.917Z,31.77
2018-09-15T06:23:45.241Z,32.28
2018-09-15T06:24:49.320Z,30.10
2018-09-15T06:25:53.846Z,32.45
2018-09-15T06:26:58.258Z,30.45
2018-09-15T06:28:02.738Z,30.62
2018-09-15T06:29:06.997Z,31.42
2018-09-15T06:30:11.491Z,31.02
2018-09-15T06:31:15.937Z,30.10
2018-09-15T06:32:20.243Z,29.00
2018-09-15T06:33:24.563Z,29.57
2018-09-15T06:34:28.971Z,29.63
2018-09-15T06:35:33.202Z,29.00
2018-09-15T06:36:37.592Z,29.95
2018-09-15T06:37:42.024Z,29.40
2018-09-15T06:38:46.474Z,29.65
2018-09-15T06:39:50.661Z,27.37
2018-09-15T06:40:55.060Z,28.95
2018-09-15T06:41:59.457Z,28.55
2018-09-15T06:43:03.742Z,29.50
2018-09-15T06:44:08.186Z,27.07
2018-09-15T06:45:12.511Z,29.82
2018-09-15T06:46:17.071Z,28.17
2018-09-15T06:47:21.317Z,28.67
2018-09-15T06:48:25.532Z,27.70
2018-09-15T06:49:29.862Z,28.62
2018-09-15T06:50:34.024Z,28.42
2018-09-15T06:51:38.623Z,29.18
2018-09-15T06:52:42.937Z,29.05
2018-09-15T06:53:47.073Z,29.63
2018-09-15T06:54:51.262Z,28.92
2018-09-15T06:55:55.496Z,32.13
2018-09-15T06:56:59.777Z,28.80
2018-09-15T06:58:04.039Z,28.05
2018-09-15T06:59:08.379Z,28.07
2018-09-15T07:00:12.831Z,30.37
2018-09-15T07:01:17.034Z,29.52
2018-09-15T07:02:21.401Z,28.55
2018-09-15T07:03:25.598Z,31.05
2018-09-15T07:04:29.942Z,29.72
2018-09-15T07:05:34.270Z,28.52
2018-09-15T07:06:38.427Z,28.70
2018-09-15T07:07:42.744Z,32.00
2018-09-15T07:08:46.871Z,29.67
2018-09-15T07:09:50.906Z,28.62
2018-09-15T07:10:55.041Z,26.25
2018-09-15T07:11:59.260Z,28.98
2018-09-15T07:13:03.573Z,31.27
2018-09-15T07:14:08.407Z,29.87
2018-09-15T07:15:12.779Z,29.60
2018-09-15T07:16:16.890Z,27.22
2018-09-15T07:17:21.232Z,29.95
2018-09-15T07:18:25.373Z,28.75
2018-09-15T07:19:29.907Z,28.07
2018-09-15T07:20:34.279Z,29.60
2018-09-15T07:21:38.814Z,27.22
2018-09-15T07:22:42.966Z,27.73
2018-09-15T07:23:47.354Z,29.20
2018-09-15T07:24:51.504Z,29.27
2018-09-15T07:25:55.892Z,26.07
2018-09-15T07:27:00.224Z,27.02
2018-09-15T07:28:04.664Z,24.63
2018-09-15T07:29:08.814Z,25.60
2018-09-15T07:31:14.457Z,27.52
2018-09-15T07:32:19.148Z,25.90
2018-09-15T07:33:23.353Z,26.33
2018-09-15T07:34:27.689Z,27.82
2018-09-15T07:35:32.005Z,25.48
2018-09-15T07:36:36.133Z,24.95
2018-09-15T07:37:40.300Z,24.95
2018-09-15T07:38:44.622Z,25.68
2018-09-15T07:39:48.865Z,27.25
2018-09-15T07:40:53.101Z,24.40
2018-09-15T07:41:57.345Z,24.72
2018-09-15T07:43:01.726Z,25.85
2018-09-15T07:44:06.011Z,24.75
2018-09-15T07:45:10.376Z,24.87
2018-09-15T07:46:14.945Z,22.95
2018-09-15T07:47:19.099Z,23.95
2018-09-15T07:48:23.327Z,23.15
2018-09-15T07:49:27.624Z,23.22
2018-09-15T07:50:31.778Z,22.75
2018-09-15T07:51:36.083Z,23.20
2018-09-15T07:52:40.419Z,22.87
2018-09-15T07:53:45.055Z,22.75
2018-09-15T07:54:49.370Z,23.18
2018-09-15T07:55:53.880Z,21.57
2018-09-15T07:56:58.718Z,24.30
2018-09-15T07:58:03.029Z,24.52
2018-09-15T07:59:07.337Z,23.45
2018-09-15T08:00:11.595Z,23.27
2018-09-15T08:01:15.871Z,21.75
2018-09-15T08:02:22.764Z,23.00
2018-09-15T08:03:26.950Z,23.62
2018-09-15T08:04:31.210Z,21.65
2018-09-15T08:05:35.943Z,21.17
2018-09-15T08:06:40.531Z,20.52
2018-09-15T08:07:45.309Z,21.73
2018-09-15T08:08:49.400Z,21.85
2018-09-15T08:09:53.642Z,22.17
2018-09-15T08:10:57.974Z,22.37
2018-09-15T08:12:02.269Z,23.05
2018-09-15T08:13:06.598Z,21.75
2018-09-15T08:14:10.691Z,21.93
2018-09-15T08:15:15.055Z,22.90
2018-09-15T08:16:19.229Z,21.48
2018-09-15T08:17:23.495Z,21.87
2018-09-15T08:18:27.812Z,22.65
2018-09-15T08:19:31.954Z,22.13
2018-09-15T08:20:36.243Z,21.45
2018-09-15T08:21:40.529Z,23.57
2018-09-15T08:22:44.795Z,22.30
2018-09-15T08:23:49.008Z,23.83
2018-09-15T08:24:53.284Z,22.82
2018-09-15T08:25:57.900Z,23.55
2018-09-15T08:27:02.444Z,22.75
2018-09-15T08:28:06.817Z,25.52
2018-09-15T08:29:11.209Z,24.50
2018-09-15T08:30:15.671Z,23.20
2018-09-15T08:31:20.079Z,23.27
2018-09-15T08:32:24.200Z,22.77
2018-09-15T08:33:28.440Z,24.75
2018-09-15T08:34:32.849Z,23.65
2018-09-15T08:35:37.196Z,25.45
2018-09-15T08:36:41.454Z,24.72
2018-09-15T08:37:45.789Z,24.15
2018-09-15T08:38:49.901Z,26.90
2018-09-15T08:39:54.341Z,24.75
2018-09-15T08:40:59.060Z,22.42
2018-09-15T08:42:03.347Z,24.27
2018-09-15T08:43:07.550Z,25.55
2018-09-15T08:44:11.757Z,26.10
2018-09-15T08:45:16.692Z,23.67
2018-09-15T08:46:21.107Z,24.23
2018-09-15T08:47:25.439Z,24.30
2018-09-15T08:48:30.151Z,24.32
2018-09-15T08:49:34.521Z,26.17
2018-09-15T08:50:39.242Z,26.07
2018-09-15T08:51:43.383Z,26.07
2018-09-15T08:52:47.471Z,24.37
2018-09-15T08:53:52.258Z,25.45
2018-09-15T08:54:56.834Z,24.25
2018-09-15T08:56:01.047Z,24.98
2018-09-15T08:57:05.388Z,24.25
2018-09-15T08:58:09.647Z,23.52
2018-09-15T08:59:13.829Z,23.47
2018-09-15T09:00:18.234Z,24.37
2018-09-15T09:01:22.641Z,23.57
2018-09-15T09:02:26.759Z,23.62
2018-09-15T09:03:31.255Z,24.25
2018-09-15T09:04:35.633Z,24.02
2018-09-15T09:05:39.780Z,22.65
2018-09-15T09:06:43.956Z,22.58
2018-09-15T09:07:48.397Z,23.75
2018-09-15T09:08:52.981Z,22.50
2018-09-15T09:09:57.217Z,23.70
2018-09-15T09:11:01.358Z,23.60
2018-09-15T09:12:05.722Z,21.35
2018-09-15T09:13:09.947Z,24.50
2018-09-15T09:14:14.347Z,23.95
2018-09-15T09:15:19.023Z,22.75
2018-09-15T09:16:23.530Z,23.50
2018-09-15T09:17:28.496Z,22.25
2018-09-15T09:18:32.827Z,23.25
2018-09-15T09:19:37.272Z,23.70
2018-09-15T09:20:41.509Z,23.12
2018-09-15T09:21:45.788Z,22.37
2018-09-15T09:22:50.126Z,22.35
2018-09-15T09:23:54.380Z,22.50
2018-09-15T09:24:58.862Z,21.62
2018-09-15T09:26:03.116Z,22.85
2018-09-15T09:27:07.389Z,22.85
2018-09-15T09:28:11.910Z,21.95
2018-09-15T09:29:16.148Z,21.65
2018-09-15T09:30:20.764Z,21.40
2018-09-15T09:31:25.187Z,21.68
2018-09-15T09:32:29.572Z,21.15
2018-09-15T09:33:33.750Z,20.20
2018-09-15T09:34:38.038Z,21.40
2018-09-15T09:35:42.605Z,20.70
2018-09-15T09:36:47.049Z,21.68
2018-09-15T09:37:51.332Z,19.67
2018-09-15T09:38:55.720Z,18.52
2018-09-15T09:39:59.898Z,20.37
2018-09-15T09:41:04.440Z,20.08
2018-09-15T09:42:09.176Z,21.97
2018-09-15T09:43:13.425Z,21.15
2018-09-15T09:44:17.776Z,23.05
2018-09-15T09:45:22.114Z,21.25
2018-09-15T09:46:26.602Z,20.45
2018-09-15T09:47:31.188Z,21.75
2018-09-15T09:48:35.294Z,20.65
2018-09-15T09:49:39.637Z,20.25
2018-09-15T09:50:44.987Z,23.83
2018-09-15T09:51:49.160Z,23.18
2018-09-15T09:52:53.586Z,20.50
2018-09-15T09:53:57.888Z,20.30
2018-09-15T09:55:02.063Z,21.00
2018-09-15T09:56:06.247Z,22.00
2018-09-15T09:57:10.767Z,20.55
2018-09-15T09:58:15.102Z,23.57
2018-09-15T09:59:19.539Z,23.98
2018-09-15T10:00:29.190Z,22.07
2018-09-15T10:02:37.522Z,24.07
2018-09-15T10:03:41.655Z,19.65
2018-09-15T10:04:46.014Z,18.73
2018-09-15T10:05:50.380Z,18.20
2018-09-15T10:06:54.704Z,19.02
2018-09-15T10:07:59.004Z,18.80
2018-09-15T10:09:03.636Z,19.52
2018-09-15T10:10:07.846Z,18.12
2018-09-15T10:11:12.147Z,19.25
2018-09-15T10:12:16.982Z,18.02
2018-09-15T10:13:21.334Z,18.17
2018-09-15T10:14:25.677Z,19.90
2018-09-15T10:15:30.079Z,19.55
2018-09-15T10:16:34.211Z,20.85
2018-09-15T10:17:38.373Z,18.73
2018-09-15T10:18:42.643Z,20.02
2018-09-15T10:19:46.761Z,20.08
2018-09-15T10:20:51.089Z,19.35
2018-09-15T10:21:55.449Z,21.05
2018-09-15T10:22:59.944Z,20.77
2018-09-15T10:24:04.186Z,19.92
2018-09-15T10:25:08.482Z,19.92
2018-09-15T10:26:12.975Z,19.62
2018-09-15T10:27:17.295Z,21.02
2018-09-15T10:28:21.532Z,21.10
2018-09-15T10:29:26.040Z,18.57
2018-09-15T10:30:30.204Z,19.90
2018-09-15T10:31:34.490Z,18.92
2018-09-15T10:32:38.851Z,19.45
2018-09-15T10:33:43.315Z,20.88
2018-09-15T10:34:47.589Z,18.62
2018-09-15T10:35:51.866Z,22.15
2018-09-15T10:36:56.210Z,21.45
2018-09-15T10:38:00.769Z,19.17
2018-09-15T10:39:07.459Z,20.35
2018-09-15T10:40:11.921Z,19.12
2018-09-15T10:41:16.150Z,19.65
2018-09-15T10:42:20.560Z,18.05
2018-09-15T10:43:24.871Z,18.75
2018-09-15T10:44:29.189Z,19.30
2018-09-15T10:45:33.719Z,20.10
2018-09-15T10:46:37.882Z,17.75
2018-09-15T10:47:42.112Z,16.97
2018-09-15T10:48:46.326Z,16.05
2018-09-15T10:49:50.530Z,15.65
2018-09-15T10:50:54.785Z,15.75
2018-09-15T10:51:59.194Z,14.83
2018-09-15T10:53:03.350Z,14.25
2018-09-15T10:54:07.674Z,13.13
2018-09-15T10:55:11.863Z,14.98
2018-09-15T10:56:16.207Z,14.90
2018-09-15T10:57:20.325Z,13.32
2018-09-15T10:58:24.770Z,14.35
2018-09-15T10:59:28.970Z,13.25
2018-09-15T11:00:33.215Z,14.47
2018-09-15T11:01:37.409Z,12.88
2018-09-15T11:02:41.608Z,13.15
2018-09-15T11:03:45.888Z,14.55
2018-09-15T11:04:50.129Z,14.07
2018-09-15T11:05:54.769Z,14.73
2018-09-15T11:06:58.985Z,13.60
2018-09-15T11:08:03.585Z,13.15
2018-09-15T11:09:09.380Z,12.70
2018-09-15T11:10:13.980Z,13.10
2018-09-15T11:11:18.235Z,12.98
2018-09-15T11:12:22.523Z,13.80
2018-09-15T11:13:27.005Z,13.98
2018-09-15T11:14:31.596Z,14.68
2018-09-15T11:15:36.003Z,16.00
2018-09-15T11:16:40.274Z,12.88
2018-09-15T11:17:44.698Z,14.80
2018-09-15T11:18:48.919Z,15.00
2018-09-15T11:19:53.232Z,12.05
2018-09-15T11:20:57.472Z,13.20
2018-09-15T11:22:01.665Z,13.25
2018-09-15T11:23:05.946Z,13.28
2018-09-15T11:24:10.166Z,14.25
2018-09-15T11:25:14.339Z,14.75
2018-09-15T11:26:18.510Z,12.90
2018-09-15T11:27:22.606Z,13.93
2018-09-15T11:28:26.795Z,13.35
2018-09-15T11:29:31.120Z,12.60
2018-09-15T11:30:35.479Z,12.85
2018-09-15T11:31:39.639Z,13.93
2018-09-15T11:32:43.851Z,13.68
2018-09-15T11:33:48.129Z,14.05
2018-09-15T11:34:52.518Z,13.20
2018-09-15T11:35:56.672Z,11.63
2018-09-15T11:37:01.344Z,11.83
2018-09-15T11:38:05.903Z,11.88
2018-09-15T11:39:11.858Z,10.55
2018-09-15T11:40:16.430Z,9.95
2018-09-15T11:41:20.936Z,10.30
2018-09-15T11:42:24.988Z,10.15
2018-09-15T11:43:29.131Z,9.85
2018-09-15T11:44:33.407Z,8.98
2018-09-15T11:45:38.154Z,8.40
2018-09-15T11:46:42.413Z,8.80
2018-09-15T11:47:46.594Z,9.03
2018-09-15T11:48:50.788Z,7.95
2018-09-15T11:49:55.268Z,8.03
2018-09-15T11:50:59.410Z,9.25
2018-09-15T11:52:03.702Z,7.47
2018-09-15T11:53:08.007Z,8.58
2018-09-15T11:54:12.271Z,9.95
2018-09-15T11:55:16.941Z,8.10
2018-09-15T11:56:21.348Z,8.40
2018-09-15T11:57:25.492Z,8.40
2018-09-15T11:58:29.839Z,8.83
2018-09-15T11:59:34.138Z,9.48
2018-09-15T12:00:40.333Z,8.48
2018-09-15T12:01:44.654Z,9.15
2018-09-15T12:02:49.207Z,8.15
2018-09-15T12:03:53.650Z,9.38
2018-09-15T12:04:58.431Z,7.85
2018-09-15T12:06:02.569Z,8.53
2018-09-15T12:07:07.311Z,8.50
2018-09-15T12:08:11.763Z,8.60
2018-09-15T12:09:15.875Z,8.88
2018-09-15T12:10:20.070Z,9.00
2018-09-15T12:11:24.374Z,8.83
2018-09-15T12:12:28.613Z,8.75
2018-09-15T12:13:32.932Z,9.55
2018-09-15T12:14:37.252Z,9.25
2018-09-15T12:15:42.470Z,9.85
2018-09-15T12:16:46.913Z,10.25
2018-09-15T12:17:51.077Z,9.13
2018-09-15T12:18:55.121Z,9.38
2018-09-15T12:19:59.298Z,8.68
2018-09-15T12:21:03.790Z,8.80
2018-09-15T12:22:08.022Z,8.78
2018-09-15T12:23:12.222Z,8.00
2018-09-15T12:24:16.303Z,9.88
2018-09-15T12:25:20.578Z,10.18
2018-09-15T12:26:24.872Z,10.85
2018-09-15T12:27:29.382Z,11.38
2018-09-15T12:28:33.605Z,9.40
2018-09-15T12:29:38.239Z,10.95
2018-09-15T12:30:42.474Z,9.70
2018-09-15T12:31:46.726Z,10.85
2018-09-15T12:32:51.450Z,13.32
2018-09-15T12:33:56.034Z,10.32
2018-09-15T12:35:00.139Z,11.38
2018-09-15T12:36:04.411Z,13.18
2018-09-15T12:37:08.821Z,13.53
2018-09-15T12:38:13.146Z,11.45
2018-09-15T12:39:17.358Z,12.03
2018-09-15T12:40:21.689Z,11.40
2018-09-15T12:41:26.032Z,11.45
2018-09-15T12:42:30.480Z,12.10
2018-09-15T12:43:34.629Z,11.88
2018-09-15T12:44:38.987Z,13.22
2018-09-15T12:45:43.250Z,12.25
2018-09-15T12:46:47.489Z,11.95
2018-09-15T12:47:51.560Z,10.80
2018-09-15T12:48:56.120Z,11.00
2018-09-15T12:50:00.574Z,8.95
2018-09-15T12:51:04.860Z,9.30
2018-09-15T12:52:09.097Z,9.10
2018-09-15T12:53:13.529Z,10.15
2018-09-15T12:54:17.973Z,8.20
2018-09-15T12:55:22.281Z,9.68
2018-09-15T12:56:26.492Z,9.28
2018-09-15T12:57:30.746Z,9.30
2018-09-15T12:58:34.891Z,8.88
2018-09-15T12:59:39.039Z,8.38
2018-09-15T13:00:43.077Z,8.05
2018-09-15T13:01:47.384Z,8.78
2018-09-15T13:02:51.602Z,9.10
2018-09-15T13:03:55.828Z,8.65
2018-09-15T13:05:00.132Z,7.90
2018-09-15T13:06:04.590Z,7.70
2018-09-15T13:07:09.160Z,7.87
2018-09-15T13:08:13.413Z,8.40
2018-09-15T13:09:17.660Z,8.25
2018-09-15T13:10:22.336Z,8.43
2018-09-15T13:11:26.539Z,8.73
2018-09-15T13:12:31.158Z,8.55
2018-09-15T13:13:35.484Z,9.18
2018-09-15T13:14:39.951Z,9.15
2018-09-15T13:15:44.311Z,7.87
2018-09-15T13:16:48.800Z,8.73
2018-09-15T13:17:53.035Z,9.98
2018-09-15T13:18:57.424Z,9.50
2018-09-15T13:20:01.908Z,8.30
2018-09-15T13:21:06.234Z,10.23
2018-09-15T13:22:10.595Z,9.88
2018-09-15T13:23:14.937Z,9.98
2018-09-15T13:24:19.274Z,10.13
2018-09-15T13:25:23.497Z,8.90
2018-09-15T13:26:28.073Z,9.00
2018-09-15T13:27:32.436Z,8.15
2018-09-15T13:28:36.804Z,8.50
2018-09-15T13:29:41.067Z,9.58
2018-09-15T13:30:45.520Z,9.65
2018-09-15T13:31:49.697Z,8.80
2018-09-15T13:32:54.009Z,9.95
2018-09-15T13:33:58.327Z,11.18
2018-09-15T13:35:02.607Z,9.70
2018-09-15T13:36:07.083Z,9.18
2018-09-15T13:37:11.317Z,9.10
2018-09-15T13:38:16.006Z,10.68
2018-09-15T13:39:20.649Z,9.43
2018-09-15T13:40:25.120Z,8.00
2018-09-15T13:41:29.399Z,8.43
2018-09-15T13:42:33.794Z,8.13
2018-09-15T13:43:38.118Z,9.70
2018-09-15T13:44:42.832Z,9.40
2018-09-15T13:45:47.171Z,9.13
2018-09-15T13:46:51.381Z,7.58
2018-09-15T13:47:55.678Z,8.10
2018-09-15T13:48:59.865Z,7.37
2018-09-15T13:50:04.173Z,9.15
2018-09-15T13:51:08.549Z,7.87
2018-09-15T13:52:12.760Z,8.95
2018-09-15T13:53:16.948Z,9.00
2018-09-15T13:54:21.466Z,9.00
2018-09-15T13:55:25.635Z,9.05
2018-09-15T13:56:30.005Z,9.03
2018-09-15T13:57:34.416Z,8.25
2018-09-15T13:58:38.960Z,9.15
2018-09-15T13:59:43.240Z,8.23
2018-09-15T14:00:47.476Z,9.23
2018-09-15T14:01:51.686Z,8.25